Gordon Heights, New York
Current Conditions -  °F | °C
As of 7:56 PM on Saturday 25 Oct 2014 (Local Time) from KHWV Reporting Station
Clear Clear  
Wind Chill: 59°   Ceiling: Unl
Heat Index: 59°   Visibility: 10mi
Dew Point: 50°   Wind: 8mph
Humidity: 72%   Direction: 230°SW
Pressure: 29.65"   Gusts: NA
Location:  40.8228°N, 72.9822°W
Report Text: KHWV 252356Z AUTO 23007KT 10SM CLR 15/10 A2965 RMK AO2 SLP038 60000 T01500100 10194 20144 56011 TSNO
Loading
Personal Weather Stations






























Interactive Weather Map New forecast layout! Learn more

10-Day Weather Forecast

Advertisements
Track Severe Weather on mobile